Time;durP1;ratioP1;P1;durP2;ratioP2;P2;SDS_P1;SDS_P2;PMS_P1;PMS_P2;Temp;Humidity;BMP_temperature;BMP_pressure;BME280_temperature;BME280_humidity;BME280_pressure;Samples;Min_cycle;Max_cycle;Signal;HPM_P1;HPM_P2
2021/01/14 04:12:54;;;;;;;2.05;1.85;;;-14.20;91.70;;;;;;4955747;29;20126;-72
2021/01/14 04:15:20;;;;;;;2.13;1.88;;;-14.20;91.50;;;;;;4956335;29;20399;-72
2021/01/14 04:17:46;;;;;;;2.28;1.88;;;-14.20;91.30;;;;;;4956382;29;20027;-72
2021/01/14 04:20:12;;;;;;;2.38;2.17;;;-14.30;91.10;;;;;;4956228;29;20558;-72
2021/01/14 04:22:37;;;;;;;4.63;2.03;;;-14.30;91.40;;;;;;4956359;29;20021;-72
2021/01/14 04:25:04;;;;;;;2.17;1.95;;;-14.30;91.50;;;;;;4956570;29;20403;-72
2021/01/14 04:27:30;;;;;;;2.60;2.40;;;-14.30;91.60;;;;;;4956135;29;20027;-72
2021/01/14 04:29:56;;;;;;;2.35;1.85;;;-14.30;91.40;;;;;;4956331;29;20102;-72
2021/01/14 04:32:22;;;;;;;3.38;2.80;;;-14.30;91.50;;;;;;4956201;29;20464;-71
2021/01/14 04:34:48;;;;;;;3.40;2.38;;;-14.30;91.60;;;;;;4956198;29;20383;-71
2021/01/14 04:37:14;;;;;;;1.90;1.70;;;-14.30;91.60;;;;;;4956151;29;20028;-71
2021/01/14 04:39:39;;;;;;;2.15;1.95;;;-14.30;91.30;;;;;;4955815;29;20035;-71
2021/01/14 04:42:09;;;;;;;2.30;2.10;;;-14.40;91.20;;;;;;4956081;29;20026;-71
2021/01/14 04:44:34;;;;;;;2.47;2.13;;;-14.40;91.20;;;;;;4956023;29;20072;-72
2021/01/14 04:47:11;;;;;;;3.42;2.40;;;-14.40;91.30;;;;;;4955896;29;20051;-71
2021/01/14 04:49:38;;;;;;;2.78;2.20;;;-14.40;91.50;;;;;;4955678;29;20027;-71
2021/01/14 04:52:04;;;;;;;2.15;2.05;;;-14.40;91.60;;;;;;4955779;29;20027;-71
2021/01/14 04:54:36;;;;;;;2.67;2.47;;;-14.40;91.40;;;;;;4955586;29;20031;-71
2021/01/14 04:57:04;;;;;;;2.20;1.98;;;-14.40;91.60;;;;;;4955916;29;20027;-71
2021/01/14 04:59:37;;;;;;;1.92;1.83;;;-14.40;91.50;;;;;;4955513;29;20089;-71
2021/01/14 05:02:07;;;;;;;2.13;2.03;;;-14.40;91.40;;;;;;4955646;29;20026;-71
2021/01/14 05:04:37;;;;;;;4.53;2.30;;;-14.40;91.00;;;;;;4955289;29;20480;-71
2021/01/14 05:07:07;;;;;;;5.05;2.38;;;-14.50;91.00;;;;;;4955737;29;20488;-73
2021/01/14 05:09:39;;;;;;;4.90;2.10;;;-14.50;91.10;;;;;;4955198;28;20039;-74
2021/01/14 05:12:06;;;;;;;2.50;2.17;;;-14.50;91.40;;;;;;4955210;29;20039;-74
2021/01/14 05:14:33;;;;;;;2.58;2.30;;;-14.50;91.10;;;;;;4954735;28;20047;-74
2021/01/14 05:16:59;;;;;;;3.65;2.15;;;-14.50;91.20;;;;;;4955349;29;20030;-74
2021/01/14 05:19:24;;;;;;;1.90;1.60;;;-14.50;91.10;;;;;;4954939;29;20042;-74
2021/01/14 05:21:53;;;;;;;2.30;1.80;;;-14.50;91.00;;;;;;4955227;29;20034;-74
2021/01/14 05:24:19;;;;;;;2.40;2.20;;;-14.50;91.10;;;;;;4955063;29;20499;-74
2021/01/14 05:26:45;;;;;;;2.20;2.00;;;-14.50;91.20;;;;;;4955209;29;20063;-74
2021/01/14 05:29:19;;;;;;;2.53;2.10;;;-14.50;91.20;;;;;;4954963;29;20058;-74
2021/01/14 05:31:47;;;;;;;4.07;2.45;;;-14.50;91.20;;;;;;4954787;29;20070;-73
2021/01/14 05:34:17;;;;;;;4.82;2.47;;;-14.60;90.70;;;;;;4954896;29;20130;-69
2021/01/14 05:36:54;;;;;;;3.15;2.30;;;-14.60;90.70;;;;;;4955017;29;20035;-70
2021/01/14 05:39:21;;;;;;;2.50;2.17;;;-14.60;90.70;;;;;;4954668;29;20041;-71
2021/01/14 05:41:48;;;;;;;2.15;1.95;;;-14.60;90.50;;;;;;4954758;29;20036;-71
2021/01/14 05:44:14;;;;;;;2.47;2.22;;;-14.40;99.90;;;;;;4954980;29;20035;-70
2021/01/14 05:46:40;;;;;;;4.20;2.10;;;-13.60;99.90;;;;;;4954643;29;20023;-71
2021/01/14 05:49:09;;;;;;;4.90;2.92;;;-14.00;99.90;;;;;;4954383;29;20134;-72
2021/01/14 05:51:35;;;;;;;6.03;3.15;;;-14.30;94.70;;;;;;4954653;29;20027;-70
2021/01/14 05:54:06;;;;;;;8.57;2.70;;;-14.40;92.80;;;;;;4954530;29;20058;-70
2021/01/14 05:56:42;;;;;;;3.10;2.17;;;-14.60;91.50;;;;;;4953912;29;20030;-69
2021/01/14 05:59:18;;;;;;;2.72;1.95;;;-14.70;90.30;;;;;;4954310;29;20573;-69
2021/01/14 06:01:55;;;;;;;4.00;2.78;;;-14.80;89.60;;;;;;4953944;29;20059;-69
2021/01/14 06:04:25;;;;;;;2.78;2.20;;;-15.00;89.00;;;;;;4953674;29;20567;-69
2021/01/14 06:06:53;;;;;;;2.47;2.10;;;-15.10;88.20;;;;;;4954125;29;20031;-69
2021/01/14 06:09:20;;;;;;;2.75;2.25;;;-15.20;87.80;;;;;;4954572;29;20027;-70
2021/01/14 06:11:48;;;;;;;5.35;3.45;;;-15.20;87.60;;;;;;4953926;29;20089;-70
2021/01/14 06:14:29;;;;;;;4.82;3.95;;;-15.30;87.60;;;;;;4954315;29;20410;-71
2021/01/14 06:17:01;;;;;;;2.65;2.40;;;-15.30;87.50;;;;;;4954085;29;20031;-70
2021/01/14 06:19:28;;;;;;;1.92;1.83;;;-15.40;87.30;;;;;;4953878;29;20082;-70
2021/01/14 06:21:57;;;;;;;2.42;2.00;;;-15.30;87.20;;;;;;4954355;28;20028;-71
2021/01/14 06:24:36;;;;;;;2.47;2.28;;;-15.40;86.50;;;;;;4953807;28;20562;-70
2021/01/14 06:27:05;;;;;;;1.40;1.40;;;-15.40;86.70;;;;;;4953977;28;20090;-70
2021/01/14 06:29:36;;;;;;;4.97;2.20;;;-15.10;98.90;;;;;;4953604;29;20118;-72
2021/01/14 06:32:05;;;;;;;3.92;2.38;;;-15.30;90.90;;;;;;4953593;29;20019;-72
2021/01/14 06:34:32;;;;;;;2.47;2.05;;;-15.40;89.60;;;;;;4953733;29;20035;-74
2021/01/14 06:37:23;;;;;;;3.17;2.33;;;-15.50;87.60;;;;;;4954068;29;20019;-74
2021/01/14 06:39:54;;;;;;;1.85;1.70;;;-15.60;86.40;;;;;;4952293;29;20442;-74
2021/01/14 06:42:27;;;;;;;2.13;1.95;;;-14.50;99.90;;;;;;4953970;29;20028;-73
2021/01/14 06:44:58;;;;;;;3.47;2.28;;;-13.80;99.90;;;;;;4954403;29;20114;-75
2021/01/14 06:47:40;;;;;;;2.83;2.05;;;-14.30;99.90;;;;;;4953707;29;20019;-75
2021/01/14 06:50:18;;;;;;;3.47;2.22;;;-14.80;97.20;;;;;;4953107;29;20121;-73
2021/01/14 06:53:07;;;;;;;2.55;2.08;;;-15.30;91.10;;;;;;4953189;29;20387;-74
2021/01/14 06:55:33;;;;;;;2.23;2.03;;;-15.60;90.00;;;;;;4953261;28;20023;-74
2021/01/14 06:58:13;;;;;;;2.28;2.08;;;-15.70;88.40;;;;;;4953248;28;20019;-72
2021/01/14 07:00:42;;;;;;;2.13;1.90;;;-15.70;88.30;;;;;;4953144;29;20027;-74
2021/01/14 07:03:18;;;;;;;3.03;2.47;;;-15.80;87.00;;;;;;4953283;28;20253;-74
2021/01/14 07:05:53;;;;;;;3.45;2.38;;;-15.90;86.20;;;;;;4953145;29;20479;-73
2021/01/14 07:08:28;;;;;;;3.15;2.53;;;-15.90;86.00;;;;;;4953129;29;20027;-75
2021/01/14 07:11:00;;;;;;;4.22;2.22;;;-16.00;85.50;;;;;;4953280;29;20478;-74
2021/01/14 07:13:35;;;;;;;2.70;1.77;;;-16.10;85.30;;;;;;4953359;29;20067;-74
2021/01/14 07:16:02;;;;;;;2.00;1.88;;;-16.10;85.00;;;;;;4954009;28;20564;-74
2021/01/14 07:18:32;;;;;;;5.35;2.33;;;-16.20;84.70;;;;;;4953433;29;20027;-73
2021/01/14 07:21:17;;;;;;;3.35;2.00;;;-16.30;84.70;;;;;;4953433;29;20118;-74
2021/01/14 07:24:18;;;;;;;2.88;2.20;;;-16.30;84.40;;;;;;4952882;28;20027;-73
2021/01/14 07:26:45;;;;;;;1.70;1.58;;;-16.40;84.40;;;;;;4948716;29;20027;-73
2021/01/14 07:29:13;;;;;;;2.97;2.05;;;-16.40;84.10;;;;;;4953187;28;20107;-73
2021/01/14 07:31:59;;;;;;;4.78;2.53;;;-16.40;84.10;;;;;;4953350;28;20110;-73
2021/01/14 07:34:39;;;;;;;1.98;1.80;;;-16.40;84.10;;;;;;4953223;28;20031;-72
2021/01/14 07:37:09;;;;;;;2.53;2.17;;;-16.50;83.00;;;;;;4955240;28;20082;-70
2021/01/14 07:39:54;;;;;;;2.70;2.08;;;-16.70;82.60;;;;;;4956710;28;20086;-71
2021/01/14 07:42:22;;;;;;;6.50;2.83;;;-16.70;82.90;;;;;;4956988;28;20077;-73
2021/01/14 07:44:55;;;;;;;2.67;2.03;;;-16.70;83.20;;;;;;4956680;28;20027;-73
2021/01/14 07:47:24;;;;;;;2.30;2.08;;;-16.70;83.00;;;;;;4956749;29;20063;-74
2021/01/14 07:49:50;;;;;;;3.45;2.42;;;-16.70;82.80;;;;;;4956637;28;20027;-74
2021/01/14 07:52:36;;;;;;;4.72;2.22;;;-16.80;82.50;;;;;;4956787;29;20146;-74
2021/01/14 07:55:08;;;;;;;2.97;2.25;;;-16.80;83.00;;;;;;4954976;29;20419;-73
2021/01/14 07:57:48;;;;;;;2.45;2.08;;;-16.80;83.30;;;;;;4955879;28;20119;-75
2021/01/14 08:00:21;;;;;;;;;;;-16.70;83.50;;;;;;4956531;29;20479;-74
2021/01/14 08:03:05;;;;;;;3.17;2.17;;;-16.80;83.00;;;;;;4956389;28;20384;-75
2021/01/14 08:05:40;;;;;;;2.25;2.05;;;-16.80;82.70;;;;;;4956266;28;20427;-77
2021/01/14 08:08:30;;;;;;;2.15;2.00;;;-16.80;83.00;;;;;;4956315;28;20038;-67
2021/01/14 08:11:16;;;;;;;3.00;2.08;;;-15.40;99.90;;;;;;4955838;28;20019;-69
2021/01/14 08:14:08;;;;;;;5.40;3.25;;;-11.30;99.90;;;;;;4955305;28;20137;-71
2021/01/14 08:16:46;;;;;;;3.85;2.40;;;-11.90;99.90;;;;;;4956215;28;20031;-70
2021/01/14 08:19:23;;;;;;;3.88;3.08;;;-13.10;99.90;;;;;;4955899;29;20130;-70
2021/01/14 08:22:11;;;;;;;8.98;3.97;;;-14.20;99.90;;;;;;4955453;29;20495;-69
2021/01/14 08:24:46;;;;;;;21.77;7.63;;;-14.60;99.90;;;;;;4955034;29;20114;-69
2021/01/14 08:27:24;;;;;;;19.65;6.25;;;-14.60;99.90;;;;;;4955932;29;20053;-69
2021/01/14 08:30:12;;;;;;;6.25;3.72;;;-15.10;99.90;;;;;;4955088;29;20039;-68
2021/01/14 08:32:47;;;;;;;3.58;2.58;;;-15.60;99.90;;;;;;4955221;28;20129;-69
2021/01/14 08:35:16;;;;;;;3.58;2.50;;;-15.80;99.90;;;;;;4951988;29;20030;-70
2021/01/14 08:37:51;;;;;;;5.00;3.28;;;-16.00;98.60;;;;;;4950856;29;20041;-68
2021/01/14 08:40:22;;;;;;;4.38;3.08;;;-16.10;95.60;;;;;;4955467;28;20130;-68
2021/01/14 08:42:59;;;;;;;5.75;3.40;;;-16.20;93.60;;;;;;4955396;28;20369;-69
2021/01/14 08:45:31;;;;;;;3.60;2.55;;;-16.20;93.60;;;;;;4955251;29;20023;-68
2021/01/14 08:48:04;;;;;;;3.83;2.70;;;-16.20;90.90;;;;;;4955065;28;20531;-68
2021/01/14 08:51:04;;;;;;;2.45;2.25;;;-16.30;90.10;;;;;;4956076;28;20035;-69
2021/01/14 08:53:34;;;;;;;3.63;2.55;;;-15.60;99.90;;;;;;4947900;28;20039;-69
2021/01/14 08:56:08;;;;;;;4.47;2.70;;;-11.90;99.90;;;;;;4955634;29;20093;-69
2021/01/14 08:58:43;;;;;;;5.63;2.97;;;-11.50;99.90;;;;;;4955823;28;20401;-69
2021/01/14 09:01:22;;;;;;;3.90;2.60;;;-12.70;99.90;;;;;;4955907;28;20035;-69
2021/01/14 09:03:49;;;;;;;3.97;2.95;;;-13.80;99.90;;;;;;4955547;29;20034;-68
2021/01/14 09:06:16;;;;;;;3.28;2.40;;;-14.70;99.90;;;;;;4955800;28;20031;-69
2021/01/14 09:08:42;;;;;;;3.03;2.67;;;-15.10;99.90;;;;;;4955259;29;20106;-69
2021/01/14 09:11:08;;;;;;;4.65;3.38;;;-15.30;99.90;;;;;;4955245;28;20058;-70
2021/01/14 09:13:34;;;;;;;4.45;2.65;;;-15.40;99.90;;;;;;4955044;29;20083;-70
2021/01/14 09:16:08;;;;;;;4.72;2.92;;;-15.60;99.90;;;;;;4955066;29;20031;-70
2021/01/14 09:18:36;;;;;;;4.50;3.17;;;-15.70;99.90;;;;;;4954944;28;20043;-70
2021/01/14 09:21:03;;;;;;;5.18;2.63;;;-15.70;99.40;;;;;;4955146;28;20066;-69
2021/01/14 09:23:34;;;;;;;3.70;2.80;;;-15.70;95.90;;;;;;4955058;28;20023;-70
2021/01/14 09:26:02;;;;;;;4.10;2.92;;;-15.70;93.70;;;;;;4955066;28;20027;-70
2021/01/14 09:28:30;;;;;;;4.13;2.97;;;-15.70;93.40;;;;;;4954946;28;20039;-70
2021/01/14 09:31:03;;;;;;;3.67;2.63;;;-15.70;93.30;;;;;;4954987;29;20494;-71
2021/01/14 09:33:34;;;;;;;4.55;2.80;;;-15.70;91.40;;;;;;4954935;29;20051;-70
2021/01/14 09:36:03;;;;;;;4.90;2.83;;;-15.80;90.20;;;;;;4955143;29;20027;-70
2021/01/14 09:38:29;;;;;;;2.00;1.85;;;-15.90;88.70;;;;;;4954776;29;20032;-70
2021/01/14 09:40:56;;;;;;;2.58;2.00;;;-16.00;89.30;;;;;;4954696;29;20079;-70
2021/01/14 09:43:26;;;;;;;3.50;2.67;;;-16.00;88.30;;;;;;4954655;29;20494;-73
2021/01/14 09:45:52;;;;;;;3.85;2.75;;;-16.10;88.10;;;;;;4954559;29;20526;-75
2021/01/14 09:48:22;;;;;;;3.60;2.50;;;-16.00;89.10;;;;;;4954690;29;20034;-74
2021/01/14 09:50:50;;;;;;;5.78;2.85;;;-15.10;99.90;;;;;;4954430;29;20541;-75
2021/01/14 09:53:16;;;;;;;2.83;2.03;;;-15.00;99.90;;;;;;4954813;29;20031;-75
2021/01/14 09:55:43;;;;;;;3.47;2.47;;;-15.30;98.20;;;;;;4954433;29;20034;-75
2021/01/14 09:58:18;;;;;;;9.63;3.05;;;-15.50;92.90;;;;;;4955480;29;20447;-75
2021/01/14 10:00:48;;;;;;;7.45;3.00;;;-14.20;99.90;;;;;;4954546;28;20031;-75
2021/01/14 10:03:17;;;;;;;9.05;4.13;;;-14.50;99.90;;;;;;4954717;29;20050;-74
2021/01/14 10:05:48;;;;;;;7.40;3.85;;;-14.10;99.90;;;;;;4954420;29;20035;-74
2021/01/14 10:08:20;;;;;;;6.00;3.40;;;-14.60;99.90;;;;;;4954216;29;20078;-74
2021/01/14 10:10:47;;;;;;;7.03;3.20;;;-15.00;96.80;;;;;;4954353;29;20031;-74
2021/01/14 10:13:14;;;;;;;6.32;3.42;;;-15.30;93.70;;;;;;4953904;29;20553;-74
2021/01/14 10:15:42;;;;;;;4.00;2.45;;;-15.40;92.80;;;;;;4954159;29;20074;-74
2021/01/14 10:18:21;;;;;;;3.45;2.58;;;-15.50;91.30;;;;;;4954311;29;20495;-74
2021/01/14 10:20:47;;;;;;;2.40;2.20;;;-15.50;90.40;;;;;;4953814;29;20508;-75
2021/01/14 10:23:24;;;;;;;4.60;2.90;;;-15.10;99.90;;;;;;4954034;29;20027;-73
2021/01/14 10:25:49;;;;;;;6.93;3.17;;;-11.80;99.90;;;;;;4953754;29;20106;-80
2021/01/14 10:28:15;;;;;;;8.65;4.53;;;-12.50;99.90;;;;;;4954049;29;20134;-74
2021/01/14 10:30:41;;;;;;;7.63;2.90;;;-13.40;99.90;;;;;;4953865;29;20031;-75
2021/01/14 10:33:07;;;;;;;4.28;3.10;;;-14.20;99.90;;;;;;4954007;29;20506;-77
2021/01/14 10:35:34;;;;;;;6.00;3.08;;;-14.70;99.90;;;;;;4953921;29;20654;-78
2021/01/14 10:38:01;;;;;;;6.03;3.15;;;-15.00;99.90;;;;;;4953827;28;20031;-79
2021/01/14 10:40:33;;;;;;;4.72;3.30;;;-15.10;99.90;;;;;;4953868;29;20529;-79
2021/01/14 10:43:00;;;;;;;3.38;2.65;;;-15.20;97.00;;;;;;4953663;29;20019;-73
2021/01/14 10:45:29;;;;;;;4.82;2.70;;;-15.10;99.90;;;;;;4953825;28;20559;-81
2021/01/14 10:48:12;;;;;;;7.60;3.40;;;-12.40;99.90;;;;;;4953649;29;20032;-81
2021/01/14 10:50:45;;;;;;;4.30;2.63;;;-13.10;99.90;;;;;;4953731;29;20380;-81
2021/01/14 10:53:12;;;;;;;7.00;3.17;;;-14.00;99.90;;;;;;4954219;29;20071;-81
2021/01/14 10:55:39;;;;;;;5.90;2.42;;;-14.50;99.90;;;;;;4953829;28;20027;-81
2021/01/14 10:58:06;;;;;;;4.38;2.50;;;-13.70;99.90;;;;;;4953923;29;20031;-81
2021/01/14 11:00:50;;;;;;;6.60;2.90;;;-14.00;99.90;;;;;;4953803;29;20035;-80
2021/01/14 11:03:24;;;;;;;6.82;2.85;;;-14.50;98.00;;;;;;4953706;29;20037;-80
2021/01/14 11:05:52;;;;;;;6.45;2.65;;;-14.90;94.60;;;;;;4953608;29;20035;-81
2021/01/14 11:08:22;;;;;;;6.13;3.00;;;-15.10;93.30;;;;;;4953303;28;20640;-81
2021/01/14 11:11:02;;;;;;;6.35;2.85;;;-15.30;91.30;;;;;;4953556;28;20031;-80
2021/01/14 11:13:37;;;;;;;7.88;3.17;;;-15.40;91.00;;;;;;4957307;29;20434;-83
2021/01/14 11:16:04;;;;;;;1.60;1.50;;;-15.50;90.70;;;;;;4957448;29;20082;-72
2021/01/14 11:18:30;;;;;;;6.15;2.95;;;-15.10;99.90;;;;;;4956255;29;20114;-80
2021/01/14 11:20:56;;;;;;;4.07;3.08;;;-12.30;99.90;;;;;;4957293;29;20055;-76
2021/01/14 11:23:22;;;;;;;5.65;2.97;;;-12.90;99.90;;;;;;4956521;29;20491;-78
2021/01/14 11:25:47;;;;;;;3.83;2.60;;;-13.70;99.90;;;;;;4956982;29;20019;-78
2021/01/14 11:28:13;;;;;;;4.78;2.78;;;-14.30;99.90;;;;;;4957181;29;20101;-79
2021/01/14 11:30:39;;;;;;;4.53;2.85;;;-14.60;99.90;;;;;;4957198;28;20352;-79
2021/01/14 11:33:04;;;;;;;5.15;2.72;;;-14.90;99.90;;;;;;4956975;29;20019;-79
2021/01/14 11:35:30;;;;;;;4.85;2.70;;;-15.10;97.00;;;;;;4956934;29;20494;-80
2021/01/14 11:37:56;;;;;;;6.32;3.42;;;-15.20;94.20;;;;;;4956481;29;20023;-75
2021/01/14 11:40:21;;;;;;;5.30;3.00;;;-15.30;92.60;;;;;;4956666;29;20542;-76
2021/01/14 11:42:47;;;;;;;6.07;2.72;;;-15.30;92.20;;;;;;4956985;29;20107;-72
2021/01/14 11:45:13;;;;;;;8.77;3.17;;;-15.30;92.00;;;;;;4956771;29;20032;-82
2021/01/14 11:47:39;;;;;;;8.63;3.60;;;-15.30;92.00;;;;;;4956491;29;20022;-81
2021/01/14 11:50:05;;;;;;;7.53;3.17;;;-15.30;91.00;;;;;;4956374;28;20094;-81
2021/01/14 11:52:31;;;;;;;7.88;2.85;;;-15.40;90.00;;;;;;4956593;28;20102;-82
2021/01/14 11:54:57;;;;;;;4.47;3.10;;;-15.40;90.00;;;;;;4956393;29;20106;-83
2021/01/14 11:57:27;;;;;;;6.00;2.60;;;-15.40;88.80;;;;;;4956842;29;20020;-82
2021/01/14 11:59:53;;;;;;;7.47;3.22;;;-15.50;88.80;;;;;;4956540;29;20043;-83
2021/01/14 12:02:19;;;;;;;5.10;2.90;;;-15.50;88.40;;;;;;4956936;29;20110;-82
2021/01/14 12:04:45;;;;;;;5.95;2.78;;;-15.50;88.10;;;;;;4956961;29;20094;-82
2021/01/14 12:07:11;;;;;;;5.07;2.95;;;-15.60;87.00;;;;;;4956970;29;20023;-82
2021/01/14 12:09:36;;;;;;;4.10;2.85;;;-15.60;86.80;;;;;;4956571;29;20391;-81
2021/01/14 12:12:02;;;;;;;8.15;3.25;;;-15.60;87.50;;;;;;4954850;29;20047;-78
2021/01/14 12:14:28;;;;;;;6.25;3.30;;;-15.60;86.80;;;;;;4956897;29;20479;-77
2021/01/14 12:16:54;;;;;;;4.53;3.15;;;-15.70;86.70;;;;;;4956567;29;20475;-78
2021/01/14 12:19:19;;;;;;;9.68;3.03;;;-15.70;87.00;;;;;;4956179;29;20570;-76
2021/01/14 12:21:45;;;;;;;5.97;3.42;;;-15.70;86.30;;;;;;4956344;29;20087;-77
2021/01/14 12:24:11;;;;;;;3.47;2.53;;;-15.70;86.00;;;;;;4953690;28;20107;-77
2021/01/14 12:26:37;;;;;;;7.40;3.08;;;-15.80;86.00;;;;;;4954772;29;20027;-80
2021/01/14 12:29:03;;;;;;;3.63;2.60;;;-15.70;86.30;;;;;;4956089;29;20023;-80
2021/01/14 12:31:34;;;;;;;4.07;2.80;;;-15.80;85.50;;;;;;4955569;29;20114;-80
2021/01/14 12:34:00;;;;;;;3.95;2.83;;;-15.90;84.60;;;;;;4955610;29;20042;-80
2021/01/14 12:36:25;;;;;;;2.90;2.22;;;-16.00;84.70;;;;;;4955561;29;20515;-81
2021/01/14 12:38:51;;;;;;;3.33;2.50;;;-16.00;84.40;;;;;;4955998;29;20430;-80
2021/01/14 12:41:17;;;;;;;3.88;3.05;;;-16.10;84.50;;;;;;4955638;29;20051;-81
2021/01/14 12:43:42;;;;;;;8.82;4.95;;;-16.10;85.70;;;;;;4955428;29;20031;-80
2021/01/14 12:46:08;;;;;;;8.95;3.92;;;-16.10;86.00;;;;;;4955175;29;20031;-80
2021/01/14 12:48:35;;;;;;;12.43;4.60;;;-16.00;85.90;;;;;;4955650;29;20029;-77
2021/01/14 12:51:01;;;;;;;7.82;3.85;;;-16.00;85.60;;;;;;4954939;29;20027;-79
2021/01/14 12:53:26;;;;;;;3.55;2.75;;;-16.00;85.30;;;;;;4955376;29;20026;-81
2021/01/14 12:55:52;;;;;;;4.57;3.22;;;-16.10;84.70;;;;;;4953025;29;20058;-80
2021/01/14 12:58:18;;;;;;;2.60;2.25;;;-16.20;84.20;;;;;;4953222;29;20027;-81
2021/01/14 13:00:45;;;;;;;3.03;2.33;;;-16.20;84.90;;;;;;4953195;29;20027;-78
2021/01/14 13:03:11;;;;;;;3.95;2.33;;;-16.20;85.20;;;;;;4954659;29;20015;-84
2021/01/14 13:05:37;;;;;;;8.25;3.33;;;-16.20;85.00;;;;;;4954062;29;20030;-79
2021/01/14 13:08:03;;;;;;;10.25;3.60;;;-16.30;84.90;;;;;;4950564;29;20015;-79
2021/01/14 13:10:29;;;;;;;5.63;3.63;;;-16.30;85.10;;;;;;4954667;28;20039;-77
2021/01/14 13:12:55;;;;;;;4.70;2.85;;;-16.30;85.00;;;;;;4955939;28;20182;-84
2021/01/14 13:15:20;;;;;;;6.25;2.70;;;-14.90;99.90;;;;;;4956115;29;20027;-78
2021/01/14 13:17:48;;;;;;;5.22;3.33;;;-13.10;99.90;;;;;;4955172;29;20027;-78
2021/01/14 13:20:14;;;;;;;3.65;3.10;;;-12.30;99.90;;;;;;4954887;29;20043;-78
2021/01/14 13:22:43;;;;;;;5.22;2.80;;;-13.00;99.90;;;;;;4955380;29;20086;-78
2021/01/14 13:25:09;;;;;;;3.92;2.80;;;-13.80;99.90;;;;;;4954856;29;20447;-78
2021/01/14 13:27:35;;;;;;;2.45;2.15;;;-14.30;99.90;;;;;;4969670;28;20026;-78
2021/01/14 13:30:01;;;;;;;3.83;2.78;;;-14.70;99.90;;;;;;4969548;28;20043;-78
2021/01/14 13:32:26;;;;;;;3.17;2.67;;;-15.10;99.90;;;;;;4954968;29;20082;-78
2021/01/14 13:34:52;;;;;;;5.15;2.70;;;-15.40;99.90;;;;;;4954305;28;20063;-77
2021/01/14 13:37:18;;;;;;;3.80;2.67;;;-15.50;99.90;;;;;;4955010;29;20031;-77
2021/01/14 13:39:43;;;;;;;3.17;2.80;;;-15.50;99.00;;;;;;4969422;28;20105;-78
2021/01/14 13:42:11;;;;;;;3.28;2.60;;;-15.50;97.20;;;;;;4954753;29;20073;-78
2021/01/14 13:44:37;;;;;;;4.95;2.58;;;-15.50;96.00;;;;;;4954811;29;20039;-78
2021/01/14 13:47:03;;;;;;;5.25;2.47;;;-15.50;96.20;;;;;;4954735;29;20027;-78
2021/01/14 13:49:29;;;;;;;3.03;2.63;;;-15.40;95.90;;;;;;4954727;29;20051;-78
2021/01/14 13:51:55;;;;;;;4.22;2.67;;;-15.40;93.10;;;;;;4953290;29;20062;-77
2021/01/14 13:54:20;;;;;;;3.05;2.58;;;-15.40;93.70;;;;;;4954534;29;20085;-78
2021/01/14 13:56:46;;;;;;;3.67;2.97;;;-15.40;92.80;;;;;;4954820;29;20038;-77
2021/01/14 13:59:12;;;;;;;6.35;3.03;;;-15.30;95.80;;;;;;4954204;29;20086;-77
2021/01/14 14:01:38;;;;;;;4.75;2.75;;;-15.30;94.30;;;;;;4954690;28;20023;-77
2021/01/14 14:04:04;;;;;;;6.13;3.63;;;-15.30;93.80;;;;;;4954365;29;20438;-77
2021/01/14 14:06:34;;;;;;;6.03;2.95;;;-15.30;93.70;;;;;;4954623;29;20051;-77
2021/01/14 14:09:02;;;;;;;4.45;2.90;;;-15.30;93.20;;;;;;4954588;29;20023;-77
2021/01/14 14:11:28;;;;;;;4.55;2.90;;;-15.30;92.50;;;;;;4954493;29;20031;-78
2021/01/14 14:13:54;;;;;;;2.28;1.95;;;-15.30;92.80;;;;;;4952744;29;20043;-78
2021/01/14 14:16:20;;;;;;;5.25;2.60;;;-14.90;99.90;;;;;;4954373;28;20061;-70
2021/01/14 14:18:46;;;;;;;7.38;3.08;;;-14.50;99.90;;;;;;4954046;29;20106;-70
2021/01/14 14:21:13;;;;;;;5.68;3.42;;;-14.70;99.90;;;;;;4953998;29;20050;-74
2021/01/14 14:23:39;;;;;;;8.52;3.60;;;-15.00;96.60;;;;;;4952584;29;20031;-74
2021/01/14 14:26:05;;;;;;;4.13;2.65;;;-15.00;99.90;;;;;;4954071;29;20023;-74
2021/01/14 14:28:30;;;;;;;8.48;4.32;;;-11.00;99.90;;;;;;4954573;28;20552;-73
2021/01/14 14:30:56;;;;;;;8.73;5.03;;;-11.10;99.90;;;;;;4953824;28;20497;-75
2021/01/14 14:33:22;;;;;;;18.42;5.80;;;-11.90;99.90;;;;;;4953769;29;20027;-78
2021/01/14 14:35:48;;;;;;;10.13;4.63;;;-12.80;99.90;;;;;;4953679;29;20050;-73
2021/01/14 14:38:15;;;;;;;7.22;3.72;;;-13.40;99.90;;;;;;4953237;29;20509;-80
2021/01/14 14:40:41;;;;;;;7.05;3.65;;;-13.70;99.90;;;;;;4953768;29;20086;-80
2021/01/14 14:43:06;;;;;;;7.70;3.50;;;-13.90;99.90;;;;;;4953465;29;20026;-80
2021/01/14 14:45:32;;;;;;;4.78;3.28;;;-14.00;99.90;;;;;;4953135;29;20094;-80
2021/01/14 14:47:58;;;;;;;6.07;2.83;;;-14.10;99.90;;;;;;4952839;29;20019;-79
2021/01/14 14:50:23;;;;;;;3.78;2.92;;;-14.10;99.90;;;;;;4953534;29;20023;-80
2021/01/14 14:52:51;;;;;;;6.75;3.28;;;-14.10;99.90;;;;;;4953492;28;20122;-80
2021/01/14 14:55:26;;;;;;;8.65;3.50;;;-14.10;99.90;;;;;;4953607;29;20054;-81
2021/01/14 14:57:51;;;;;;;4.47;2.90;;;-14.10;99.90;;;;;;4953450;28;20035;-80
2021/01/14 15:00:17;;;;;;;5.07;3.10;;;-14.10;99.90;;;;;;4953173;29;20106;-80
2021/01/14 15:02:43;;;;;;;6.90;3.30;;;-14.10;99.90;;;;;;4953757;29;20364;-80
2021/01/14 15:05:10;;;;;;;5.03;3.80;;;-14.10;99.90;;;;;;4953176;29;20027;-79
2021/01/14 15:07:36;;;;;;;7.57;4.22;;;-14.10;99.90;;;;;;4953655;29;20023;-80
2021/01/14 15:10:03;;;;;;;5.07;2.95;;;-14.00;99.90;;;;;;4953518;29;20039;-83
2021/01/14 15:12:29;;;;;;;6.25;3.20;;;-14.10;99.90;;;;;;4952750;29;20075;-84
2021/01/14 15:14:55;;;;;;;4.95;3.03;;;-14.10;99.20;;;;;;4952914;29;20133;-84
2021/01/14 15:17:21;;;;;;;6.55;3.55;;;-14.00;99.90;;;;;;4953257;29;20038;-84
2021/01/14 15:19:46;;;;;;;7.70;3.10;;;-13.90;99.90;;;;;;4953296;29;20027;-85
2021/01/14 15:22:12;;;;;;;7.72;3.80;;;-13.90;99.90;;;;;;4953130;29;20472;-85
2021/01/14 15:24:38;;;;;;;8.95;4.22;;;-13.80;99.90;;;;;;4953179;29;20031;-85
2021/01/14 15:27:04;;;;;;;7.82;3.75;;;-13.70;99.90;;;;;;4951824;29;20471;-86
2021/01/14 15:29:30;;;;;;;4.63;3.28;;;-13.70;99.10;;;;;;4953167;29;20031;-85
2021/01/14 15:31:55;;;;;;;5.65;3.28;;;-13.70;99.70;;;;;;4953513;29;20076;-85
2021/01/14 15:34:21;;;;;;;5.75;2.83;;;-13.60;99.90;;;;;;4953587;29;20640;-86
2021/01/14 15:36:47;;;;;;;6.32;3.47;;;-13.60;99.90;;;;;;4953674;29;20029;-86
2021/01/14 15:39:13;;;;;;;6.40;2.83;;;-13.50;99.90;;;;;;4953344;29;20042;-85
2021/01/14 15:41:41;;;;;;;6.30;3.05;;;-13.50;99.90;;;;;;4953430;29;20086;-84
2021/01/14 15:44:07;;;;;;;7.65;3.65;;;-13.50;98.60;;;;;;4953472;29;20487;-85
2021/01/14 15:46:33;;;;;;;4.57;3.08;;;-13.50;98.70;;;;;;4953729;29;20419;-82
2021/01/14 15:48:59;;;;;;;6.40;3.20;;;-13.40;99.40;;;;;;4953485;29;20453;-82
2021/01/14 15:51:25;;;;;;;7.10;3.85;;;-13.40;99.30;;;;;;4953374;29;20106;-83
2021/01/14 15:54:08;;;;;;;4.68;3.75;;;-13.30;99.30;;;;;;4952253;29;20494;-83
2021/01/14 15:56:37;;;;;;;5.78;3.85;;;-13.30;98.90;;;;;;4950448;29;20504;-81
2021/01/14 15:59:24;;;;;;;7.57;4.07;;;-13.30;99.00;;;;;;4954269;28;20115;-82
2021/01/14 16:01:50;;;;;;;6.22;4.15;;;-13.20;97.70;;;;;;4956165;28;20023;-81
2021/01/14 16:04:16;;;;;;;9.65;4.18;;;-13.20;98.50;;;;;;4955868;29;20188;-80
2021/01/14 16:06:41;;;;;;;4.75;3.35;;;-13.20;98.70;;;;;;4956050;29;20403;-85
2021/01/14 16:09:07;;;;;;;9.57;4.50;;;-13.10;98.20;;;;;;4955791;29;20103;-78
2021/01/14 16:11:33;;;;;;;8.10;3.53;;;-13.10;98.50;;;;;;4956136;29;20035;-84
2021/01/14 16:13:59;;;;;;;5.22;3.80;;;-13.10;95.90;;;;;;4956100;29;20043;-83
2021/01/14 16:16:24;;;;;;;9.88;4.85;;;-13.10;95.90;;;;;;4955892;29;20030;-75
2021/01/14 16:18:50;;;;;;;7.07;4.18;;;-13.10;97.30;;;;;;4955962;29;20111;-74
2021/01/14 16:21:16;;;;;;;8.88;5.03;;;-13.00;97.70;;;;;;4956172;29;20035;-81
2021/01/14 16:23:41;;;;;;;7.65;4.75;;;-13.00;98.50;;;;;;4954441;29;20106;-75
2021/01/14 16:26:07;;;;;;;7.72;3.72;;;-13.00;93.70;;;;;;4955660;29;20526;-74
2021/01/14 16:28:33;;;;;;;12.32;4.65;;;-13.10;93.40;;;;;;4955928;28;20026;-74
2021/01/14 16:30:59;;;;;;;9.10;4.88;;;-13.10;92.50;;;;;;4955905;29;20038;-74
2021/01/14 16:33:24;;;;;;;9.30;4.45;;;-13.10;91.50;;;;;;4955740;28;20098;-75
2021/01/14 16:35:50;;;;;;;11.70;4.38;;;-13.10;92.10;;;;;;4955742;29;20031;-79
2021/01/14 16:38:16;;;;;;;9.00;4.38;;;-13.20;91.50;;;;;;4954914;29;20035;-74
2021/01/14 16:40:44;;;;;;;6.38;3.90;;;-13.20;90.40;;;;;;4955601;29;20126;-75
2021/01/14 16:43:09;;;;;;;8.82;4.22;;;-13.20;91.50;;;;;;4955314;29;20026;-74
2021/01/14 16:45:35;;;;;;;7.32;4.30;;;-13.20;92.40;;;;;;4955022;29;20027;-74
2021/01/14 16:48:01;;;;;;;6.60;4.10;;;-13.20;91.80;;;;;;4955503;29;20038;-75
2021/01/14 16:50:26;;;;;;;4.32;3.28;;;-13.20;90.50;;;;;;4955386;29;20095;-75
2021/01/14 16:52:53;;;;;;;6.20;3.58;;;-12.50;99.90;;;;;;4955408;29;20039;-75
2021/01/14 16:55:18;;;;;;;4.38;3.15;;;-12.50;99.90;;;;;;4955142;29;20534;-75
2021/01/14 16:57:44;;;;;;;4.22;2.65;;;-12.80;99.90;;;;;;4955108;29;20038;-75